Flight Track Log - Related Links

Times and Time Zones

All times are in EDT time to prevent confusion due to time zone crossing. See the ASQ6045 flight status page for this flight to view local times or setup timezone preferences in your user account.

Time Position Orientation Groundspeed Altitude Reporting Facility
EDT Latitude Longitude Course Direction KTS MPH feet Rate Location/Type
Tue 10:54:00 AM 41.9762 -87.9089 197° South  Level FlightAware Approximate
Tue 10:54:07 AM 41.9333 -87.9000 197° South 188 216 2,700  Level Chicago TRACON
Tue 10:55:00 AM 41.9207 -87.9963 217° Southwest  Level Estimated
Tue 10:55:07 AM 41.8667 -87.9167 191° South 241 277 5,500  Level Chicago TRACON
Tue 10:55:55 AM 41.8128 -87.9192 182° South 252 290 7,600 2,618 Climbing Chicago Center
Tue 10:56:00 AM 41.8652 -88.0836 200° South  Level Estimated
Tue 10:56:57 AM 41.7411 -87.9619 204° Southwest 279 321 10,300  Level Chicago Center
Tue 10:57:00 AM 41.8097 -88.1707 180° South  Level Estimated
Tue 10:57:59 AM 41.6658 -88.0100 205° Southwest 299 344 12,700  Level Chicago Center
Tue 10:58:00 AM 41.7540 -88.2576 203° Southwest  Level Estimated
Tue 10:59:00 AM 41.6983 -88.3444 197° South  Level Estimated
Tue 10:59:01 AM 41.5631 -88.0772 206° Southwest 349 402 14,100  Level Chicago Center
Tue 11:00:03 AM 41.4722 -88.1372 206° Southwest 372 428 15,600 1,500 Climbing Chicago Center
Tue 11:01:05 AM 41.3772 -88.1936 204° Southwest 389 448 17,200 1,597 Climbing Chicago Center
Tue 11:02:07 AM 41.2550 -88.2483 199° South 393 452 18,900 1,548 Climbing Chicago Center
Tue 11:03:09 AM 41.1517 -88.2950 199° South 394 453 20,400 1,597 Climbing Chicago Center
Tue 11:04:11 AM 41.0475 -88.3431 199° South 399 459 22,200 1,839 Climbing Chicago Center
Tue 11:05:13 AM 40.9456 -88.3872 198° South 393 452 24,200 1,935 Climbing Chicago Center
Tue 11:06:15 AM 40.8453 -88.4336 199° South 387 445 26,200 2,081 Climbing Chicago Center
Tue 11:07:17 AM 40.7475 -88.5397 219° Southwest 378 435 28,500 1,790 Climbing Chicago Center
Tue 11:08:19 AM 40.6653 -88.6272 219° Southwest 377 434 29,900 1,161 Climbing Chicago Center
Tue 11:09:21 AM 40.5808 -88.7172 219° Southwest 387 445 30,900 968 Climbing Chicago Center
Tue 11:10:23 AM 40.4914 -88.8106 218° Southwest 405 466 31,900 532 Climbing Chicago Center
Tue 11:11:25 AM 40.3931 -88.9142 219° Southwest 424 488 32,000 726 Climbing Chicago Center
Tue 11:12:27 AM 40.2944 -89.0172 219° Southwest 444 511 33,400 1,610 Climbing Chicago Center
Tue 11:13:28 AM 40.2006 -89.1144 218° Southwest 434 499 35,300 1,248 Climbing Chicago Center
Tue 11:14:32 AM 40.1083 -89.2125 219° Southwest 421 484 36,000 328 Climbing Kansas City Center
Tue 11:15:36 AM 40.0136 -89.3097 218° Southwest 426 490 36,000  Level Kansas City Center
Tue 11:16:34 AM 39.8961 -89.4322 219° Southwest 448 516 36,000  Level Chicago Center
Tue 11:17:38 AM 39.7950 -89.5378 219° Southwest 455 524 36,000  Level Kansas City Center
Tue 11:18:42 AM 39.7017 -89.6328 218° Southwest 455 524 36,000  Level Kansas City Center
Tue 11:19:42 AM 39.6047 -89.7328 218° Southwest 449 517 36,000  Level Kansas City Center
Tue 11:20:46 AM 39.4878 -89.8517 218° Southwest 447 514 36,000  Level Kansas City Center
Tue 11:21:46 AM 39.3900 -89.9522 218° Southwest 449 517 36,000  Level Kansas City Center
Tue 11:22:50 AM 39.2911 -90.0514 218° Southwest 450 518 36,000  Level Kansas City Center
Tue 11:23:51 AM 39.1922 -90.1508 218° Southwest 452 520 36,000  Level Kansas City Center
Tue 11:24:53 AM 39.0931 -90.2511 218° Southwest 453 521 36,000  Level Kansas City Center
Tue 11:25:54 AM 38.9944 -90.3503 218° Southwest 453 521 36,000  Level Kansas City Center
Tue 11:26:58 AM 38.8753 -90.4697 218° Southwest 457 526 36,000  Level Kansas City Center
Tue 11:27:59 AM 38.7953 -90.5897 229° Southwest 458 527 36,000  Level Kansas City Center
Tue 11:29:00 AM 38.7286 -90.7219 237° Southwest 451 519 36,000  Level Kansas City Center
Tue 11:30:04 AM 38.6611 -90.8547 237° Southwest 450 518 36,000  Level Kansas City Center
Tue 11:31:07 AM 38.5806 -91.0131 237° Southwest 445 512 36,000  Level Kansas City Center
Tue 11:32:07 AM 38.5147 -91.1458 238° Southwest 444 511 36,000  Level Kansas City Center
Tue 11:33:11 AM 38.4467 -91.2789 237° Southwest 448 516 36,000  Level Kansas City Center
Tue 11:34:12 AM 38.3781 -91.4147 237° Southwest 456 525 36,000  Level Kansas City Center
Tue 11:35:12 AM 38.3075 -91.5517 237° Southwest 461 531 36,000  Level Kansas City Center
Tue 11:36:16 AM 38.2372 -91.6875 237° Southwest 462 532 36,000  Level Kansas City Center
Tue 11:37:16 AM 38.1525 -91.8497 236° Southwest 460 529 36,000  Level Kansas City Center
Tue 11:38:20 AM 38.0808 -91.9881 237° Southwest 458 527 36,000  Level Kansas City Center
Tue 11:39:21 AM 38.0128 -92.1192 237° Southwest 458 527 36,000  Level Kansas City Center
Tue 11:40:25 AM 37.9419 -92.2525 236° Southwest 457 526 36,000  Level Kansas City Center
Tue 11:41:25 AM 37.8694 -92.3867 236° Southwest 462 532 36,000  Level Kansas City Center
Tue 11:42:29 AM 37.7981 -92.5200 236° Southwest 460 529 36,000  Level Kansas City Center
Tue 11:43:30 AM 37.7122 -92.6797 236° Southwest 459 528 36,000  Level Kansas City Center
Tue 11:44:31 AM 37.6503 -92.7944 236° Southwest 457 526 36,000  Level Kansas City Center
Tue 11:45:35 AM 37.5644 -92.9528 236° Southwest 457 526 36,000 -384 Level Kansas City Center
Tue 11:46:36 AM 37.4869 -93.0950 236° Southwest 454 522 35,200 -836 Descending Kansas City Center
Tue 11:47:37 AM 37.4283 -93.2219 240° Southwest 449 517 34,300 -912 Descending Kansas City Center
Tue 11:48:41 AM 37.3775 -93.3617 245° Southwest 456 525 33,300 -1,008 Descending Kansas City Center
Tue 11:49:42 AM 37.3211 -93.5150 245° Southwest 464 534 32,200 -1,016 Descending Kansas City Center
Tue 11:50:45 AM 37.2658 -93.6600 244° Southwest 460 529 31,200 -1,065 Descending Kansas City Center
Tue 11:51:46 AM 37.2006 -93.8331 245° Southwest 457 526 30,000 -1,113 Descending Kansas City Center
Tue 11:52:49 AM 37.1458 -93.9772 245° Southwest 458 527 28,900 -1,016 Descending Kansas City Center
Tue 11:53:50 AM 37.0911 -94.1222 245° Southwest 460 529 27,900 -960 Descending Kansas City Center
Tue 11:54:54 AM 37.0372 -94.2636 245° Southwest 451 519 26,900 -960 Descending Kansas City Center
Tue 11:55:55 AM 36.9839 -94.4008 244° Southwest 439 505 25,900 -1,131 Descending Kansas City Center
Tue 11:56:56 AM 36.9319 -94.5367 244° Southwest 435 501 24,600 -1,839 Descending Kansas City Center
Tue 11:57:59 AM 36.8686 -94.6969 244° Southwest 431 496 22,100 -2,419 Descending Kansas City Center
Tue 11:59:00 AM 36.8194 -94.8258 245° Southwest 417 480 19,600 -2,164 Descending Kansas City Center
Tue 12:00:01 PM 36.7714 -94.9503 244° Southwest 406 467 17,700 -1,584 Descending Kansas City Center
Tue 12:01:05 PM 36.7244 -95.0697 244° Southwest 391 450 16,300 -1,440 Descending Kansas City Center
Tue 12:02:06 PM 36.6783 -95.1867 244° Southwest 380 437 14,700 -1,488 Descending Kansas City Center
Tue 12:03:10 PM 36.6108 -95.2889 231° Southwest 386 444 13,200 -1,770 Descending Kansas City Center
Tue 12:04:08 PM 36.5256 -95.3936 225° Southwest 365 420 11,100 -1,613 Descending Kansas City Center
Tue 12:05:09 PM 36.4631 -95.4697 224° Southwest 301 346 10,000 -984 Descending Kansas City Center
Tue 12:06:16 PM 36.4411 -95.5767 256° West 295 339 9,000 -891 Descending Kansas City Center
Tue 12:07:17 PM 36.4336 -95.6675 264° West 296 341 8,100 -1,409 Descending Kansas City Center
Tue 12:08:11 PM 36.4225 -95.7739 263° West 283 326 6,300 -1,706 Descending Kansas City Center
Tue 12:09:06 PM 36.4164 -95.8500 264° West 263 303 5,000 -1,138 Descending Kansas City Center
Tue 12:10:07 PM 36.3747 -95.8761 207° Southwest 169 194 4,100 -885 Descending Kansas City Center
Tue 12:11:08 PM 36.3306 -95.8742 178° South 147 169 3,200 -893 Descending Kansas City Center
Tue 12:12:08 PM 36.2928 -95.8764 183° South 127 146 2,300 -893 Descending Kansas City Center
Tue 12:13:09 PM 36.2575 -95.8786 183° South 129 148 1,400 -744 Descending Kansas City Center
Tue 12:14:09 PM 36.2219 -95.8806 183° South 125 144 800 -600 Descending Kansas City Center

Login

Don't have an account? Register now (free) for customized features, flight alerts, and more!